Time;durP1;ratioP1;P1;durP2;ratioP2;P2;SDS_P1;SDS_P2;PMS_P1;PMS_P2;Temp;Humidity;BMP_temperature;BMP_pressure;BME280_temperature;BME280_humidity;BME280_pressure;Samples;Min_cycle;Max_cycle;Signal;HPM_P1;HPM_P2
2021/05/22 00:01:31;;;;;;;7.50;4.80;;;13.50;99.90;;;;;;5098185;28;20503;-68
2021/05/22 00:03:58;;;;;;;6.03;4.97;;;13.40;99.90;;;;;;5098261;28;20457;-68
2021/05/22 00:06:24;;;;;;;5.40;4.83;;;13.30;99.90;;;;;;5098802;28;20482;-68
2021/05/22 00:08:51;;;;;;;5.40;4.90;;;13.30;99.90;;;;;;5098851;28;20770;-68
2021/05/22 00:11:17;;;;;;;5.70;5.10;;;13.30;99.90;;;;;;5099146;28;20457;-68
2021/05/22 00:13:44;;;;;;;5.87;5.30;;;13.30;99.90;;;;;;5098415;28;20468;-67
2021/05/22 00:16:11;;;;;;;10.30;5.40;;;13.20;99.90;;;;;;5098378;28;20460;-68
2021/05/22 00:18:37;;;;;;;7.30;4.97;;;13.20;99.90;;;;;;5098839;28;20450;-68
2021/05/22 00:21:04;;;;;;;6.73;5.73;;;13.10;99.90;;;;;;5098646;28;20475;-68
2021/05/22 00:23:30;;;;;;;7.60;5.93;;;13.10;99.90;;;;;;5098436;28;20460;-68
2021/05/22 00:25:57;;;;;;;7.83;5.60;;;13.00;99.90;;;;;;5098583;28;20453;-68
2021/05/22 00:28:23;;;;;;;6.67;5.70;;;12.90;99.90;;;;;;5099123;28;20477;-67
2021/05/22 00:30:50;;;;;;;5.30;4.60;;;12.90;99.90;;;;;;5098580;28;20589;-68
2021/05/22 00:33:16;;;;;;;7.93;4.30;;;12.90;99.90;;;;;;5098527;28;20489;-68
2021/05/22 00:35:43;;;;;;;11.20;4.67;;;12.90;99.90;;;;;;5098632;28;20482;-68
2021/05/22 00:38:10;;;;;;;4.80;3.17;;;12.80;99.90;;;;;;5099701;28;20514;-67
2021/05/22 00:40:36;;;;;;;10.63;3.07;;;12.80;99.90;;;;;;5098906;28;20454;-68
2021/05/22 00:43:03;;;;;;;8.17;3.70;;;12.80;99.90;;;;;;5098727;28;20457;-68
2021/05/22 00:45:31;;;;;;;8.97;4.03;;;12.80;99.90;;;;;;5098797;28;20925;-68
2021/05/22 00:47:58;;;;;;;4.40;2.90;;;12.80;99.90;;;;;;5098968;28;20492;-68
2021/05/22 00:50:26;;;;;;;4.40;3.37;;;12.70;99.90;;;;;;5098251;28;20924;-68
2021/05/22 00:52:53;;;;;;;5.80;3.03;;;12.70;99.90;;;;;;5099304;28;20453;-69
2021/05/22 00:55:20;;;;;;;5.10;3.27;;;12.70;99.90;;;;;;5098864;28;20475;-68
2021/05/22 00:57:46;;;;;;;7.90;3.20;;;12.70;99.90;;;;;;5099234;28;20931;-69
2021/05/22 01:00:18;;;;;;;9.17;3.20;;;12.70;99.90;;;;;;5098586;28;20463;-67
2021/05/22 01:02:46;;;;;;;5.53;3.20;;;12.70;99.90;;;;;;5099583;28;20442;-68
2021/05/22 01:05:13;;;;;;;4.53;3.47;;;12.70;99.90;;;;;;5099607;28;20453;-68
2021/05/22 01:07:40;;;;;;;7.33;3.50;;;12.60;99.90;;;;;;5098461;28;20944;-68
2021/05/22 01:10:08;;;;;;;4.27;3.23;;;12.60;99.90;;;;;;5098588;28;20457;-68
2021/05/22 01:12:36;;;;;;;9.93;2.90;;;12.60;99.90;;;;;;5097742;28;20457;-67
2021/05/22 01:15:07;;;;;;;6.27;2.77;;;12.60;99.90;;;;;;5097915;28;20449;-69
2021/05/22 01:17:37;;;;;;;5.63;3.23;;;12.60;99.90;;;;;;5098294;28;20444;-67
2021/05/22 01:20:15;;;;;;;6.57;3.13;;;12.60;99.90;;;;;;5098446;28;20441;-68
2021/05/22 01:22:45;;;;;;;3.17;2.80;;;12.50;99.90;;;;;;5098359;28;20804;-67
2021/05/22 01:25:22;;;;;;;4.77;2.70;;;12.50;99.90;;;;;;5097838;28;20484;-67
2021/05/22 01:27:49;;;;;;;6.70;2.33;;;12.50;99.90;;;;;;5098379;28;20525;-68
2021/05/22 01:30:16;;;;;;;5.00;2.80;;;12.50;99.90;;;;;;5098392;28;20920;-67
2021/05/22 01:32:42;;;;;;;8.43;2.57;;;12.50;99.90;;;;;;5097915;28;20485;-68
2021/05/22 01:35:10;;;;;;;4.67;2.37;;;12.50;99.90;;;;;;5098317;28;20469;-69
2021/05/22 01:37:36;;;;;;;4.50;1.90;;;12.40;99.90;;;;;;5097716;28;20453;-68
2021/05/22 01:40:04;;;;;;;3.53;2.07;;;12.40;99.90;;;;;;5097753;28;20453;-68
2021/05/22 01:42:31;;;;;;;7.93;2.23;;;12.40;99.90;;;;;;5098496;28;20921;-67
2021/05/22 01:44:58;;;;;;;5.30;2.10;;;12.40;99.90;;;;;;5098173;28;20533;-68
2021/05/22 01:47:26;;;;;;;3.07;2.40;;;12.40;99.90;;;;;;5098019;28;20773;-67
2021/05/22 01:49:53;;;;;;;7.57;2.37;;;12.40;99.90;;;;;;5097775;28;20461;-68
2021/05/22 01:52:21;;;;;;;4.30;2.47;;;12.40;99.90;;;;;;5097699;28;20461;-68
2021/05/22 01:54:49;;;;;;;6.50;2.30;;;12.40;99.90;;;;;;5097467;28;20932;-68
2021/05/22 01:57:16;;;;;;;4.70;2.20;;;12.40;99.90;;;;;;5097866;28;20828;-74
2021/05/22 01:59:43;;;;;;;4.63;1.93;;;12.40;99.90;;;;;;5097816;28;20460;-68
2021/05/22 02:02:10;;;;;;;5.10;2.37;;;12.40;99.90;;;;;;5098293;28;20490;-68
2021/05/22 02:04:41;;;;;;;6.70;2.20;;;12.40;99.90;;;;;;5098097;28;20870;-68
2021/05/22 02:07:08;;;;;;;2.57;1.90;;;12.40;99.90;;;;;;5098343;28;20763;-68
2021/05/22 02:09:35;;;;;;;4.07;2.30;;;12.40;99.90;;;;;;5098043;28;20791;-68
2021/05/22 02:12:08;;;;;;;3.20;2.10;;;12.40;99.90;;;;;;5097987;28;20464;-68
2021/05/22 02:14:37;;;;;;;5.07;2.07;;;12.40;99.90;;;;;;5100861;28;20769;-68
2021/05/22 02:17:07;;;;;;;5.63;2.30;;;12.40;99.90;;;;;;5103362;28;20513;-68
2021/05/22 02:19:35;;;;;;;3.03;2.10;;;12.40;99.90;;;;;;5103047;28;20534;-67
2021/05/22 02:22:04;;;;;;;2.73;1.80;;;12.40;99.90;;;;;;5102692;28;20457;-68
2021/05/22 02:24:31;;;;;;;8.53;2.30;;;12.40;99.90;;;;;;5103174;28;20457;-68
2021/05/22 02:26:59;;;;;;;4.40;2.03;;;12.40;99.90;;;;;;5103269;28;20485;-68
2021/05/22 02:29:28;;;;;;;5.37;2.60;;;12.40;99.90;;;;;;5102544;28;20597;-69
2021/05/22 02:31:54;;;;;;;4.40;2.30;;;12.40;99.90;;;;;;5101795;28;20973;-68
2021/05/22 02:34:28;;;;;;;4.00;2.23;;;12.40;99.90;;;;;;5102704;28;20453;-68
2021/05/22 02:36:56;;;;;;;3.07;2.00;;;12.40;99.90;;;;;;5101995;28;20452;-67
2021/05/22 02:39:23;;;;;;;3.57;2.03;;;12.40;99.90;;;;;;5102881;28;20892;-67
2021/05/22 02:41:52;;;;;;;3.67;2.03;;;12.40;99.90;;;;;;5102679;28;20513;-67
2021/05/22 02:44:20;;;;;;;8.80;2.50;;;12.40;99.90;;;;;;5102443;28;20453;-67
2021/05/22 02:46:52;;;;;;;5.77;2.50;;;12.40;99.90;;;;;;5102557;28;20572;-67
2021/05/22 02:49:26;;;;;;;2.67;2.07;;;12.40;99.90;;;;;;5102270;28;20454;-67
2021/05/22 02:51:55;;;;;;;3.20;2.00;;;12.30;99.90;;;;;;5102225;28;20479;-67
2021/05/22 02:54:23;;;;;;;2.57;2.30;;;12.30;99.90;;;;;;5102295;28;20453;-67
2021/05/22 02:56:51;;;;;;;3.63;2.00;;;12.30;99.90;;;;;;5102808;28;20460;-68
2021/05/22 02:59:18;;;;;;;2.60;2.13;;;12.30;99.90;;;;;;5102592;28;20464;-67
2021/05/22 03:01:45;;;;;;;3.50;2.10;;;12.30;99.90;;;;;;5101173;28;20457;-68
2021/05/22 03:04:12;;;;;;;9.90;2.37;;;12.30;99.90;;;;;;5102097;28;20504;-68
2021/05/22 03:06:39;;;;;;;4.03;2.50;;;12.30;99.90;;;;;;5101243;28;20482;-68
2021/05/22 03:09:06;;;;;;;2.97;1.90;;;12.30;99.90;;;;;;5102201;28;20449;-68
2021/05/22 03:11:32;;;;;;;4.83;2.00;;;12.30;99.90;;;;;;5102482;28;20792;-68
2021/05/22 03:13:59;;;;;;;4.60;2.13;;;12.40;99.90;;;;;;5101547;28;20457;-68
2021/05/22 03:16:25;;;;;;;5.70;2.10;;;12.40;99.90;;;;;;5101077;28;20452;-68
2021/05/22 03:18:51;;;;;;;5.50;2.13;;;12.40;99.90;;;;;;5103265;28;20464;-68
2021/05/22 03:21:17;;;;;;;8.73;2.33;;;12.40;99.90;;;;;;5101474;28;20835;-68
2021/05/22 03:23:46;;;;;;;4.30;2.13;;;12.40;99.90;;;;;;5101625;28;20458;-68
2021/05/22 03:26:15;;;;;;;6.13;1.97;;;12.40;99.90;;;;;;5101356;28;20573;-68
2021/05/22 03:28:41;;;;;;;3.93;1.70;;;12.40;99.90;;;;;;5101666;28;20544;-68
2021/05/22 03:31:07;;;;;;;3.70;1.70;;;12.40;99.90;;;;;;5101874;28;20453;-68
2021/05/22 03:33:33;;;;;;;3.13;1.90;;;12.40;99.90;;;;;;5100898;28;20785;-67
2021/05/22 03:36:00;;;;;;;6.20;2.20;;;12.40;99.90;;;;;;5101280;28;20923;-68
2021/05/22 03:38:26;;;;;;;4.47;2.60;;;12.40;99.90;;;;;;5102437;28;20459;-68
2021/05/22 03:40:53;;;;;;;3.63;1.77;;;12.40;99.90;;;;;;5101846;28;20471;-68
2021/05/22 03:43:19;;;;;;;2.67;1.90;;;12.40;99.90;;;;;;5101774;28;20476;-68
2021/05/22 03:45:46;;;;;;;2.90;2.00;;;12.40;99.90;;;;;;5101405;28;20534;-68
2021/05/22 03:48:12;;;;;;;4.10;2.10;;;12.40;99.90;;;;;;5101295;28;20473;-68
2021/05/22 03:50:38;;;;;;;11.70;2.67;;;12.40;99.90;;;;;;5102282;28;20457;-67
2021/05/22 03:53:04;;;;;;;4.20;2.30;;;12.50;99.90;;;;;;5101969;28;20922;-67
2021/05/22 03:55:31;;;;;;;5.07;3.50;;;12.50;99.90;;;;;;5101707;28;20999;-68
2021/05/22 03:57:58;;;;;;;3.90;2.00;;;12.50;99.90;;;;;;5101640;28;20454;-68
2021/05/22 04:00:24;;;;;;;3.60;1.90;;;12.50;99.90;;;;;;5101723;28;20465;-67
2021/05/22 04:02:50;;;;;;;6.43;1.77;;;12.60;99.90;;;;;;5100712;28;20929;-67
2021/05/22 04:05:17;;;;;;;4.87;1.80;;;12.60;99.90;;;;;;5100183;28;20453;-67
2021/05/22 04:07:43;;;;;;;2.93;2.40;;;12.70;99.90;;;;;;5099781;28;20853;-67
2021/05/22 04:10:11;;;;;;;4.93;2.27;;;12.70;99.90;;;;;;5099806;28;20566;-67
2021/05/22 04:12:37;;;;;;;2.67;1.83;;;12.80;99.90;;;;;;5099449;28;20457;-68
2021/05/22 04:15:05;;;;;;;4.20;2.83;;;12.80;99.90;;;;;;5099541;28;20457;-67
2021/05/22 04:17:32;;;;;;;2.90;2.23;;;12.80;99.90;;;;;;5097985;28;20445;-67
2021/05/22 04:19:58;;;;;;;2.63;2.20;;;12.80;99.90;;;;;;5098177;28;20457;-67
2021/05/22 04:22:24;;;;;;;3.40;1.80;;;12.90;99.90;;;;;;5098498;28;20461;-68
2021/05/22 04:24:50;;;;;;;4.00;2.20;;;12.90;99.90;;;;;;5099689;28;20503;-68
2021/05/22 04:27:17;;;;;;;2.77;2.27;;;13.00;99.90;;;;;;5099559;28;20476;-68
2021/05/22 04:29:43;;;;;;;4.83;2.57;;;13.00;99.90;;;;;;5099286;28;20453;-68
2021/05/22 04:32:10;;;;;;;4.83;2.40;;;13.10;99.90;;;;;;5099481;28;20529;-67
2021/05/22 04:34:36;;;;;;;5.10;2.70;;;13.10;99.90;;;;;;5099888;28;20464;-68
2021/05/22 04:37:02;;;;;;;4.13;2.23;;;13.10;99.90;;;;;;5098725;28;20518;-68
2021/05/22 04:39:29;;;;;;;2.53;1.87;;;13.20;99.90;;;;;;5099365;28;20449;-68
2021/05/22 04:41:55;;;;;;;4.50;2.33;;;13.20;99.90;;;;;;5099855;28;20468;-68
2021/05/22 04:44:21;;;;;;;3.10;2.00;;;13.30;99.90;;;;;;5100284;28;20931;-68
2021/05/22 04:46:48;;;;;;;3.07;2.30;;;13.30;99.90;;;;;;5100026;28;20473;-67
2021/05/22 04:49:15;;;;;;;2.60;2.40;;;13.30;99.90;;;;;;5098658;28;20913;-67
2021/05/22 04:51:44;;;;;;;3.50;2.47;;;13.30;99.90;;;;;;5098529;28;20462;-68
2021/05/22 04:54:10;;;;;;;3.37;2.10;;;13.30;99.90;;;;;;5098600;28;20465;-68
2021/05/22 04:56:37;;;;;;;2.50;2.30;;;13.40;99.90;;;;;;5097767;28;20449;-68
2021/05/22 04:59:04;;;;;;;2.50;2.20;;;13.40;99.90;;;;;;5098255;28;20464;-68
2021/05/22 05:01:31;;;;;;;3.00;2.13;;;13.40;99.90;;;;;;5099270;28;20453;-68
2021/05/22 05:03:57;;;;;;;4.87;1.93;;;13.40;99.90;;;;;;5099034;28;20513;-68
2021/05/22 05:06:25;;;;;;;5.13;2.57;;;13.40;99.90;;;;;;5099718;28;20453;-68
2021/05/22 05:08:52;;;;;;;2.70;1.90;;;13.50;99.90;;;;;;5098679;28;20461;-68
2021/05/22 05:11:18;;;;;;;2.90;2.13;;;13.50;99.90;;;;;;5098892;28;20457;-68
2021/05/22 05:13:44;;;;;;;3.00;2.10;;;13.50;99.90;;;;;;5100596;28;20514;-68
2021/05/22 05:16:13;;;;;;;3.60;1.90;;;13.50;99.90;;;;;;5101154;28;20453;-68
2021/05/22 05:18:39;;;;;;;2.97;2.20;;;13.60;99.90;;;;;;5099471;28;20457;-68
2021/05/22 05:21:06;;;;;;;2.80;1.90;;;13.70;99.90;;;;;;5099290;28;20463;-68
2021/05/22 05:23:33;;;;;;;2.73;1.80;;;13.80;99.90;;;;;;5097925;28;20544;-68
2021/05/22 05:25:59;;;;;;;2.47;2.10;;;13.80;99.90;;;;;;5098543;28;20487;-68
2021/05/22 05:28:25;;;;;;;3.50;1.90;;;13.80;99.90;;;;;;5099790;28;20910;-68
2021/05/22 05:30:51;;;;;;;2.10;1.60;;;13.80;99.90;;;;;;5099022;28;20457;-68
2021/05/22 05:33:18;;;;;;;2.47;2.27;;;13.90;99.90;;;;;;5098805;28;20496;-67
2021/05/22 05:35:44;;;;;;;2.23;1.90;;;13.90;99.90;;;;;;5099340;28;20526;-68
2021/05/22 05:38:10;;;;;;;3.43;2.00;;;13.80;99.90;;;;;;5099288;28;20474;-68
2021/05/22 05:40:38;;;;;;;6.10;1.70;;;13.80;99.90;;;;;;5099377;28;20494;-67
2021/05/22 05:43:09;;;;;;;2.60;2.10;;;13.80;99.90;;;;;;5099070;28;20461;-67
2021/05/22 05:45:35;;;;;;;3.00;1.93;;;13.90;99.90;;;;;;5099104;28;20866;-67
2021/05/22 05:48:01;;;;;;;3.53;2.17;;;13.80;99.90;;;;;;5099841;28;20786;-67
2021/05/22 05:50:28;;;;;;;3.63;1.90;;;13.80;99.90;;;;;;5103363;28;20464;-68
2021/05/22 05:52:54;;;;;;;2.20;2.00;;;13.80;99.90;;;;;;5102932;28;20780;-69
2021/05/22 05:55:20;;;;;;;4.90;2.27;;;13.70;99.90;;;;;;5103051;28;20790;-67
2021/05/22 05:57:47;;;;;;;3.00;2.00;;;13.60;99.90;;;;;;5102107;28;20454;-68
2021/05/22 06:00:14;;;;;;;2.07;1.37;;;13.50;99.90;;;;;;5102046;28;20479;-68
2021/05/22 06:02:41;;;;;;;1.93;1.50;;;13.50;99.90;;;;;;5101639;28;20457;-68
2021/05/22 06:05:08;;;;;;;2.80;1.73;;;13.40;99.90;;;;;;5102293;28;20460;-67
2021/05/22 06:07:35;;;;;;;3.53;1.50;;;13.10;99.90;;;;;;5101561;28;20477;-68
2021/05/22 06:10:01;;;;;;;1.80;1.60;;;12.90;99.90;;;;;;5102057;28;20457;-68
2021/05/22 06:12:28;;;;;;;2.33;1.37;;;12.80;99.90;;;;;;5102260;28;20433;-69
2021/05/22 06:14:56;;;;;;;2.93;1.50;;;12.70;99.90;;;;;;5102503;28;20456;-69
2021/05/22 06:17:23;;;;;;;1.90;1.33;;;12.80;99.90;;;;;;5103229;28;20517;-68
2021/05/22 06:19:49;;;;;;;2.93;1.07;;;12.70;99.90;;;;;;5103340;28;20457;-69
2021/05/22 06:22:16;;;;;;;2.03;1.23;;;12.70;99.90;;;;;;5102652;28;20529;-68
2021/05/22 06:24:42;;;;;;;3.03;1.33;;;12.70;99.90;;;;;;5101616;28;20454;-69
2021/05/22 06:27:11;;;;;;;1.50;1.20;;;12.70;99.90;;;;;;5101572;28;20539;-70
2021/05/22 06:29:37;;;;;;;3.70;1.47;;;12.80;99.90;;;;;;5101454;28;20942;-71
2021/05/22 06:32:07;;;;;;;2.97;1.53;;;12.80;99.90;;;;;;5102093;28;20489;-69
2021/05/22 06:34:35;;;;;;;2.40;1.20;;;12.90;99.90;;;;;;5101534;28;20453;-68
2021/05/22 06:37:01;;;;;;;3.77;2.00;;;13.00;99.90;;;;;;5100971;28;20450;-70
2021/05/22 06:39:28;;;;;;;1.83;1.23;;;13.10;99.90;;;;;;5101194;28;20473;-71
2021/05/22 06:41:54;;;;;;;5.00;1.50;;;13.20;99.90;;;;;;5101620;28;20488;-69
2021/05/22 06:44:24;;;;;;;1.80;1.60;;;13.40;99.90;;;;;;5101105;28;20464;-68
2021/05/22 06:46:54;;;;;;;2.53;1.47;;;13.50;99.90;;;;;;5100463;28;20477;-71
2021/05/22 06:49:21;;;;;;;4.20;1.20;;;13.60;99.90;;;;;;5102089;28;20740;-71
2021/05/22 06:51:49;;;;;;;2.90;1.60;;;13.80;99.90;;;;;;5100150;28;20453;-69
2021/05/22 06:54:16;;;;;;;1.57;1.47;;;13.90;99.90;;;;;;5099468;28;20548;-71
2021/05/22 06:56:42;;;;;;;2.23;1.37;;;14.00;99.90;;;;;;5099866;28;20453;-70
2021/05/22 06:59:08;;;;;;;2.20;1.47;;;14.20;99.90;;;;;;5100645;28;20816;-68
2021/05/22 07:01:35;;;;;;;4.33;1.40;;;14.20;99.90;;;;;;5099971;28;20768;-70
2021/05/22 07:04:01;;;;;;;2.57;1.60;;;14.30;99.90;;;;;;5099064;28;20468;-67
2021/05/22 07:06:28;;;;;;;2.63;1.47;;;14.40;99.90;;;;;;5098798;28;20458;-68
2021/05/22 07:08:55;;;;;;;2.43;1.67;;;14.40;99.90;;;;;;5099234;28;20491;-69
2021/05/22 07:11:22;;;;;;;2.33;1.60;;;14.50;99.90;;;;;;5099574;28;20457;-72
2021/05/22 07:13:52;;;;;;;2.63;1.30;;;14.50;99.90;;;;;;5099600;28;20557;-68
2021/05/22 07:16:19;;;;;;;6.80;1.30;;;14.60;99.90;;;;;;5099682;28;20635;-68
2021/05/22 07:18:45;;;;;;;3.33;1.80;;;14.60;99.90;;;;;;5100064;28;20453;-67
2021/05/22 07:21:14;;;;;;;2.53;1.20;;;14.50;99.90;;;;;;5099142;28;20465;-68
2021/05/22 07:23:41;;;;;;;2.70;1.50;;;14.60;99.90;;;;;;5099080;28;20464;-67
2021/05/22 07:26:07;;;;;;;5.03;1.50;;;14.60;99.90;;;;;;5098275;28;20484;-67
2021/05/22 07:28:34;;;;;;;5.33;1.40;;;14.50;99.90;;;;;;5098550;28;20481;-67
2021/05/22 07:31:01;;;;;;;5.47;1.30;;;14.50;99.90;;;;;;5097128;28;20468;-68
2021/05/22 07:33:27;;;;;;;3.57;1.33;;;14.50;99.90;;;;;;5097479;28;20485;-67
2021/05/22 07:35:54;;;;;;;3.87;1.20;;;14.60;99.90;;;;;;5097316;28;20549;-67
2021/05/22 07:38:20;;;;;;;5.00;1.40;;;14.70;99.90;;;;;;5098003;28;20461;-67
2021/05/22 07:40:47;;;;;;;2.70;1.30;;;14.70;99.90;;;;;;5096385;28;20453;-67
2021/05/22 07:43:14;;;;;;;3.10;1.40;;;14.70;99.90;;;;;;5097268;28;20982;-67
2021/05/22 07:45:41;;;;;;;1.50;1.20;;;14.80;99.90;;;;;;5097963;28;20499;-67
2021/05/22 07:48:07;;;;;;;5.40;1.10;;;14.80;99.90;;;;;;5097723;28;20523;-67
2021/05/22 07:50:35;;;;;;;6.77;1.13;;;14.70;99.90;;;;;;5097448;28;20469;-69
2021/05/22 07:53:02;;;;;;;3.07;1.23;;;14.70;99.90;;;;;;5096371;28;20464;-70
2021/05/22 07:55:28;;;;;;;1.97;1.20;;;14.70;99.90;;;;;;5096874;28;20572;-70
2021/05/22 07:57:56;;;;;;;1.70;1.60;;;14.70;99.90;;;;;;5097456;28;20453;-70
2021/05/22 08:00:23;;;;;;;2.43;1.20;;;14.90;99.90;;;;;;5097201;28;20461;-67
2021/05/22 08:02:52;;;;;;;4.00;1.40;;;15.00;99.90;;;;;;5097530;28;20536;-70
2021/05/22 08:05:19;;;;;;;1.90;1.33;;;15.10;99.90;;;;;;5097674;28;20463;-68
2021/05/22 08:07:46;;;;;;;3.30;1.50;;;15.20;99.90;;;;;;5096837;28;20503;-67
2021/05/22 08:10:14;;;;;;;4.33;1.20;;;15.20;99.90;;;;;;5096603;28;20457;-70
2021/05/22 08:12:40;;;;;;;2.00;1.20;;;15.30;99.90;;;;;;5096057;28;20465;-69
2021/05/22 08:15:08;;;;;;;3.03;1.43;;;15.40;99.90;;;;;;5096872;28;20913;-70
2021/05/22 08:17:34;;;;;;;2.47;1.73;;;15.60;99.90;;;;;;5096983;28;20460;-70
2021/05/22 08:20:01;;;;;;;2.60;1.00;;;15.70;99.90;;;;;;5096749;28;20461;-67
2021/05/22 08:22:28;;;;;;;1.73;1.13;;;15.70;99.90;;;;;;5097294;28;20791;-67
2021/05/22 08:24:56;;;;;;;2.60;1.20;;;15.80;99.90;;;;;;5096894;28;20450;-68
2021/05/22 08:27:22;;;;;;;3.37;1.00;;;15.80;99.90;;;;;;5096948;28;20481;-68
2021/05/22 08:29:49;;;;;;;2.33;1.00;;;15.70;99.90;;;;;;5097974;28;20479;-68
2021/05/22 08:32:16;;;;;;;2.23;1.17;;;15.60;99.90;;;;;;5097008;28;20493;-69
2021/05/22 08:34:42;;;;;;;3.13;1.00;;;15.40;99.90;;;;;;5097572;28;20453;-68
2021/05/22 08:37:11;;;;;;;3.70;1.40;;;15.20;99.90;;;;;;5098487;28;20462;-71
2021/05/22 08:39:43;;;;;;;3.70;1.30;;;15.10;99.90;;;;;;5097838;28;20595;-69
2021/05/22 08:42:10;;;;;;;2.13;1.00;;;15.10;99.90;;;;;;5098478;28;20460;-69
2021/05/22 08:44:38;;;;;;;4.10;1.23;;;15.10;99.90;;;;;;5097783;28;20453;-70
2021/05/22 08:47:05;;;;;;;2.43;1.00;;;15.10;99.90;;;;;;5097399;28;20473;-72
2021/05/22 08:49:40;;;;;;;4.60;1.07;;;15.10;99.90;;;;;;5099603;28;20464;-67
2021/05/22 08:52:08;;;;;;;3.43;1.00;;;15.10;99.90;;;;;;5096581;28;20448;-68
2021/05/22 08:54:34;;;;;;;5.10;1.10;;;15.30;99.90;;;;;;5096736;28;20453;-67
2021/05/22 08:57:00;;;;;;;1.83;0.90;;;15.40;99.90;;;;;;5098359;28;20488;-67
2021/05/22 08:59:27;;;;;;;1.40;0.80;;;15.50;99.90;;;;;;5097531;28;20468;-68
2021/05/22 09:01:53;;;;;;;9.20;1.20;;;15.60;99.90;;;;;;5096474;28;20506;-66
2021/05/22 09:04:19;;;;;;;4.57;1.00;;;15.80;99.90;;;;;;5097359;28;20745;-67
2021/05/22 09:07:01;;;;;;;3.13;1.10;;;15.90;99.90;;;;;;5097787;28;20456;-67
2021/05/22 09:09:38;;;;;;;2.47;1.30;;;16.00;99.90;;;;;;5096492;28;20449;-67
2021/05/22 09:12:05;;;;;;;2.47;0.90;;;16.20;99.90;;;;;;5096827;28;20979;-67
2021/05/22 09:14:48;;;;;;;3.20;1.00;;;16.20;99.90;;;;;;5097013;28;20461;-68
2021/05/22 09:17:15;;;;;;;2.10;1.07;;;16.20;99.90;;;;;;5096259;28;20503;-68
2021/05/22 09:19:44;;;;;;;2.80;0.93;;;16.20;99.90;;;;;;5097039;28;20485;-68
2021/05/22 09:25:06;;;;;;;2.70;1.00;;;16.40;99.90;;;;;;5094672;28;20453;-68
2021/05/22 09:27:34;;;;;;;1.30;0.80;;;16.40;99.90;;;;;;5096830;28;20477;-67
2021/05/22 09:30:06;;;;;;;3.20;0.83;;;16.50;99.90;;;;;;5096539;28;20445;-68
2021/05/22 09:32:33;;;;;;;2.40;0.90;;;16.60;99.90;;;;;;5097048;28;20495;-68
2021/05/22 09:34:59;;;;;;;3.33;1.10;;;16.60;99.90;;;;;;5097385;28;20461;-67
2021/05/22 09:37:26;;;;;;;1.60;0.87;;;16.70;99.90;;;;;;5096916;28;20449;-68
2021/05/22 09:39:53;;;;;;;2.23;1.20;;;16.70;99.90;;;;;;5096487;28;20450;-67
2021/05/22 09:42:27;;;;;;;2.10;1.00;;;16.70;99.90;;;;;;5097212;28;20457;-68
2021/05/22 09:44:54;;;;;;;3.30;1.20;;;16.50;99.90;;;;;;5097152;28;20458;-68
2021/05/22 09:47:20;;;;;;;4.10;1.40;;;16.40;99.90;;;;;;5096900;28;20478;-67
2021/05/22 09:49:50;;;;;;;2.97;1.53;;;16.30;99.90;;;;;;5096264;28;20453;-68
2021/05/22 09:52:17;;;;;;;6.90;1.10;;;16.30;99.90;;;;;;5096212;28;20457;-68
2021/05/22 09:54:46;;;;;;;2.17;1.00;;;16.40;99.90;;;;;;5096221;28;20760;-68
2021/05/22 09:57:15;;;;;;;5.23;1.20;;;16.50;99.90;;;;;;5096545;28;20456;-68
2021/05/22 09:59:42;;;;;;;3.03;0.90;;;16.70;99.90;;;;;;5096406;28;20877;-68
2021/05/22 10:02:10;;;;;;;3.03;1.00;;;16.90;99.90;;;;;;5095929;28;20464;-68
2021/05/22 10:04:37;;;;;;;1.57;0.93;;;17.00;99.90;;;;;;5096060;28;20453;-68
2021/05/22 10:07:03;;;;;;;2.13;0.90;;;17.00;99.90;;;;;;5096395;28;20477;-68
2021/05/22 10:09:29;;;;;;;2.83;1.30;;;17.10;99.90;;;;;;5096235;28;20750;-68
2021/05/22 10:12:09;;;;;;;2.33;0.80;;;17.20;99.90;;;;;;5096199;28;20465;-67
2021/05/22 10:14:37;;;;;;;2.67;1.00;;;17.20;99.90;;;;;;5095899;28;20510;-68
2021/05/22 10:17:05;;;;;;;2.33;0.90;;;17.20;99.90;;;;;;5095047;28;20472;-69
2021/05/22 10:19:32;;;;;;;3.60;0.93;;;17.20;99.90;;;;;;5094628;28;20544;-68
2021/05/22 10:21:59;;;;;;;2.40;0.83;;;17.10;99.90;;;;;;5094794;28;20548;-70
2021/05/22 10:24:26;;;;;;;3.43;0.93;;;17.10;99.90;;;;;;5094761;28;20457;-70
2021/05/22 10:26:53;;;;;;;1.43;0.80;;;17.00;99.90;;;;;;5094141;28;21008;-68
2021/05/22 10:29:21;;;;;;;3.20;0.87;;;16.90;99.90;;;;;;5094260;28;20457;-68
2021/05/22 10:31:50;;;;;;;2.10;0.90;;;16.60;99.90;;;;;;5093773;28;20580;-69
2021/05/22 10:34:19;;;;;;;8.00;1.00;;;15.80;99.90;;;;;;5094748;28;20602;-68
2021/05/22 10:36:51;;;;;;;3.17;1.20;;;14.80;99.90;;;;;;5098007;28;20585;-68
2021/05/22 10:39:38;;;;;;;1.30;1.00;;;13.70;99.90;;;;;;5097737;28;20441;-68
2021/05/22 10:42:06;;;;;;;3.27;1.20;;;12.80;1.00;;;;;;5097057;28;20444;-68
2021/05/22 10:44:36;;;;;;;2.87;1.10;;;12.30;99.90;;;;;;5097401;28;20583;-68
2021/05/22 10:47:09;;;;;;;4.33;2.13;;;12.10;99.90;;;;;;5097706;28;20783;-69
2021/05/22 10:49:55;;;;;;;5.50;1.40;;;12.00;99.90;;;;;;5097649;28;20442;-68
2021/05/22 10:52:23;;;;;;;5.30;1.30;;;12.00;99.90;;;;;;5097398;28;20457;-68
2021/05/22 10:55:11;;;;;;;3.43;1.40;;;12.00;99.90;;;;;;5098248;28;20756;-68
2021/05/22 10:58:09;;;;;;;2.50;1.20;;;12.00;99.90;;;;;;5093445;28;20445;-68
2021/05/22 11:00:36;;;;;;;3.30;1.67;;;12.20;99.90;;;;;;5097225;28;20491;-67
2021/05/22 11:03:10;;;;;;;1.50;1.40;;;12.40;99.90;;;;;;5098230;28;20491;-67
2021/05/22 11:05:39;;;;;;;4.20;1.20;;;12.60;99.90;;;;;;5097557;28;20528;-69
2021/05/22 11:08:28;;;;;;;4.23;1.23;;;12.80;99.90;;;;;;5097131;28;20485;-67
2021/05/22 11:10:59;;;;;;;2.83;1.67;;;13.10;99.90;;;;;;5097511;28;20982;-69
2021/05/22 11:13:39;;;;;;;7.40;1.47;;;13.30;99.90;;;;;;5097560;28;20453;-69
2021/05/22 11:16:07;;;;;;;2.73;1.83;;;13.60;99.90;;;;;;5097493;28;20468;-68
2021/05/22 11:18:59;;;;;;;2.50;1.40;;;13.80;99.90;;;;;;5096836;28;20992;-71
2021/05/22 11:21:26;;;;;;;3.00;1.10;;;14.20;99.90;;;;;;5082472;28;20453;-68
2021/05/22 11:24:16;;;;;;;4.67;1.53;;;15.10;99.90;;;;;;5097599;28;20469;-70
2021/05/22 11:27:04;;;;;;;4.50;1.20;;;15.70;99.90;;;;;;5097090;28;20449;-67
2021/05/22 11:30:00;;;;;;;2.27;1.20;;;15.70;99.90;;;;;;5092657;28;20473;-69
2021/05/22 11:32:50;;;;;;;3.57;1.37;;;15.60;99.90;;;;;;5097125;28;20930;-69
2021/05/22 11:35:35;;;;;;;1.40;0.97;;;15.10;99.90;;;;;;5097206;28;20461;-69
2021/05/22 11:38:31;;;;;;;2.03;1.30;;;14.60;99.90;;;;;;5097166;28;20471;-71
2021/05/22 11:40:59;;;;;;;3.30;1.30;;;14.20;99.90;;;;;;5096599;28;20902;-69
2021/05/22 11:43:29;;;;;;;3.40;1.30;;;14.00;99.90;;;;;;5097179;28;20465;-68
2021/05/22 11:45:58;;;;;;;3.10;1.27;;;14.00;99.90;;;;;;5096129;28;20942;-68
2021/05/22 11:48:26;;;;;;;1.57;0.90;;;14.20;99.90;;;;;;5096400;28;20489;-69
2021/05/22 11:50:53;;;;;;;1.83;1.00;;;14.50;99.90;;;;;;5096135;28;20547;-68
2021/05/22 11:53:20;;;;;;;4.73;0.97;;;14.70;99.90;;;;;;5096591;28;20528;-70
2021/05/22 11:55:57;;;;;;;2.23;1.13;;;14.90;99.90;;;;;;5096737;28;20454;-68
2021/05/22 11:58:24;;;;;;;5.67;0.93;;;15.30;99.90;;;;;;5096556;28;20890;-69
2021/05/22 12:00:50;;;;;;;2.43;1.03;;;16.20;99.90;;;;;;5096643;28;20788;-68
2021/05/22 12:03:24;;;;;;;3.50;1.50;;;17.30;99.90;;;;;;5096098;28;20788;-67
2021/05/22 12:05:52;;;;;;;2.60;0.90;;;18.20;99.90;;;;;;5096214;28;20454;-68
2021/05/22 12:08:21;;;;;;;2.53;1.07;;;18.70;99.90;;;;;;5096222;28;20477;-69
2021/05/22 12:10:47;;;;;;;3.37;1.10;;;18.60;99.90;;;;;;5095877;28;20467;-69
2021/05/22 12:13:14;;;;;;;4.10;0.80;;;18.20;99.90;;;;;;5096261;28;20461;-68
2021/05/22 12:15:42;;;;;;;1.83;0.77;;;17.50;1.00;;;;;;5096296;28;20491;-69
2021/05/22 12:18:09;;;;;;;4.97;0.90;;;17.20;1.00;;;;;;5095709;28;20950;-68
2021/05/22 12:20:47;;;;;;;3.30;0.90;;;17.10;1.00;;;;;;5096568;28;20453;-69
2021/05/22 12:23:30;;;;;;;2.13;0.90;;;17.10;1.00;;;;;;5097152;28;20464;-68
2021/05/22 12:25:58;;;;;;;1.87;1.27;;;17.20;1.00;;;;;;5095563;28;20446;-68
2021/05/22 12:28:27;;;;;;;2.50;1.20;;;17.60;1.00;;;;;;5095475;28;20492;-67
2021/05/22 12:30:55;;;;;;;3.30;0.97;;;17.80;1.00;;;;;;5095717;28;20556;-69
2021/05/22 12:33:21;;;;;;;1.37;0.70;;;18.00;1.00;;;;;;5095559;28;20485;-69
2021/05/22 12:36:01;;;;;;;2.50;0.87;;;17.90;1.00;;;;;;5096220;28;20480;-68
2021/05/22 12:38:39;;;;;;;2.40;1.03;;;17.70;1.00;;;;;;5095717;28;20445;-68
2021/05/22 12:41:05;;;;;;;3.10;0.90;;;17.50;1.00;;;;;;5095242;28;20460;-69
2021/05/22 12:43:50;;;;;;;2.23;1.00;;;17.50;1.00;;;;;;5095209;28;20467;-68
2021/05/22 12:46:26;;;;;;;4.70;1.00;;;17.60;1.00;;;;;;5095279;28;20468;-68
2021/05/22 12:49:05;;;;;;;6.00;1.13;;;17.60;1.00;;;;;;5094652;28;20485;-68
2021/05/22 12:51:33;;;;;;;2.40;1.10;;;17.50;1.00;;;;;;5095597;28;20437;-69
2021/05/22 12:53:59;;;;;;;5.30;1.00;;;17.40;1.00;;;;;;5095230;28;20457;-68
2021/05/22 12:56:26;;;;;;;2.17;1.10;;;17.40;1.00;;;;;;5095284;28;20457;-68
2021/05/22 12:59:11;;;;;;;3.27;1.10;;;17.30;1.00;;;;;;5094399;28;20921;-68